Terminal Aerodrome Forecast
Issued by NWS Brownsville, TX

Home | Current Version | Previous Version | Text Only | Print | Product List | Glossary On
Versions: 1 2 3 4 5 6 7 8 9 10 11 12
000
FTUS44 KBRO 041726
TAFMFE
TAF
KMFE 041726Z 0418/0518 15016G25KT P6SM SKC
     FM050200 16008KT P6SM SKC
     FM051500 17015KT P6SM FEW050=

USA.gov is the U.S. government's official web portal to all federal, state and local government web resources and services.